sensor_id;sensor_type;location;lat;lon;timestamp;pressure;altitude;pressure_sealevel;temperature;humidity
77431;BME280;66498;48.564;19.272;2023-08-01T00:01:29;97122.84;;;13.18;93.05
77431;BME280;66498;48.564;19.272;2023-08-01T00:03:55;97117.09;;;13.21;91.55
77431;BME280;66498;48.564;19.272;2023-08-01T00:06:20;97106.41;;;13.33;90.64
77431;BME280;66498;48.564;19.272;2023-08-01T00:08:47;97109.97;;;13.22;90.91
77431;BME280;66498;48.564;19.272;2023-08-01T00:11:13;97107.94;;;13.56;89.39
77431;BME280;66498;48.564;19.272;2023-08-01T00:13:40;97104.44;;;13.78;86.47
77431;BME280;66498;48.564;19.272;2023-08-01T00:16:06;97104.94;;;13.75;86.63
77431;BME280;66498;48.564;19.272;2023-08-01T00:18:32;97104.13;;;13.42;88.92
77431;BME280;66498;48.564;19.272;2023-08-01T00:20:57;97107.38;;;12.78;92.95
77431;BME280;66498;48.564;19.272;2023-08-01T00:23:24;97113.63;;;12.72;93.56
77431;BME280;66498;48.564;19.272;2023-08-01T00:25:49;97110.97;;;12.94;93.07
77431;BME280;66498;48.564;19.272;2023-08-01T00:28:21;97113.44;;;12.78;93.69
77431;BME280;66498;48.564;19.272;2023-08-01T00:30:47;97110.81;;;12.78;93.81
77431;BME280;66498;48.564;19.272;2023-08-01T00:33:14;97104.19;;;12.76;93.67
77431;BME280;66498;48.564;19.272;2023-08-01T00:35:40;97112.91;;;13.03;92.54
77431;BME280;66498;48.564;19.272;2023-08-01T00:38:06;97116.50;;;13.41;88.78
77431;BME280;66498;48.564;19.272;2023-08-01T00:40:32;97105.06;;;13.31;88.45
77431;BME280;66498;48.564;19.272;2023-08-01T00:42:57;97103.25;;;12.65;93.39
77431;BME280;66498;48.564;19.272;2023-08-01T00:45:24;97111.94;;;12.44;93.79
77431;BME280;66498;48.564;19.272;2023-08-01T00:47:51;97109.94;;;12.51;92.54
77431;BME280;66498;48.564;19.272;2023-08-01T00:50:18;97102.59;;;12.75;91.02
77431;BME280;66498;48.564;19.272;2023-08-01T00:52:46;97101.56;;;12.54;91.87
77431;BME280;66498;48.564;19.272;2023-08-01T00:55:12;97102.13;;;12.39;93.47
77431;BME280;66498;48.564;19.272;2023-08-01T00:57:38;97106.56;;;12.55;92.95
77431;BME280;66498;48.564;19.272;2023-08-01T01:00:04;97097.41;;;13.07;88.91
77431;BME280;66498;48.564;19.272;2023-08-01T01:02:29;97095.41;;;12.92;90.39
77431;BME280;66498;48.564;19.272;2023-08-01T01:04:55;97090.56;;;13.28;88.10
77431;BME280;66498;48.564;19.272;2023-08-01T01:07:21;97086.91;;;12.85;89.88
77431;BME280;66498;48.564;19.272;2023-08-01T01:09:47;97087.59;;;12.75;91.11
77431;BME280;66498;48.564;19.272;2023-08-01T01:12:13;97077.69;;;12.22;92.81
77431;BME280;66498;48.564;19.272;2023-08-01T01:14:38;97070.56;;;12.00;94.56
77431;BME280;66498;48.564;19.272;2023-08-01T01:17:04;97063.56;;;11.89;94.92
77431;BME280;66498;48.564;19.272;2023-08-01T01:19:30;97068.00;;;11.89;94.97
77431;BME280;66498;48.564;19.272;2023-08-01T01:21:55;97072.28;;;11.78;95.94
77431;BME280;66498;48.564;19.272;2023-08-01T01:24:22;97070.97;;;11.75;95.68
77431;BME280;66498;48.564;19.272;2023-08-01T01:26:49;97061.13;;;11.54;96.76
77431;BME280;66498;48.564;19.272;2023-08-01T01:29:16;97048.72;;;11.49;96.61
77431;BME280;66498;48.564;19.272;2023-08-01T01:31:41;97035.66;;;11.54;96.56
77431;BME280;66498;48.564;19.272;2023-08-01T01:34:07;97026.66;;;11.67;95.71
77431;BME280;66498;48.564;19.272;2023-08-01T01:36:33;97035.97;;;11.92;94.69
77431;BME280;66498;48.564;19.272;2023-08-01T01:38:59;97037.53;;;12.10;94.38
77431;BME280;66498;48.564;19.272;2023-08-01T01:41:25;97034.16;;;11.92;95.69
77431;BME280;66498;48.564;19.272;2023-08-01T01:43:50;97031.84;;;11.96;95.35
77431;BME280;66498;48.564;19.272;2023-08-01T01:46:16;97023.44;;;11.99;94.64
77431;BME280;66498;48.564;19.272;2023-08-01T01:48:41;97032.78;;;12.06;94.00
77431;BME280;66498;48.564;19.272;2023-08-01T01:51:08;97028.63;;;11.94;94.88
77431;BME280;66498;48.564;19.272;2023-08-01T01:53:33;97032.16;;;11.99;94.89
77431;BME280;66498;48.564;19.272;2023-08-01T01:55:59;97034.16;;;11.92;95.25
77431;BME280;66498;48.564;19.272;2023-08-01T01:58:24;97030.78;;;11.80;96.69
77431;BME280;66498;48.564;19.272;2023-08-01T02:00:50;97020.44;;;11.73;96.82
77431;BME280;66498;48.564;19.272;2023-08-01T02:03:15;97012.69;;;12.00;95.62
77431;BME280;66498;48.564;19.272;2023-08-01T02:05:40;97011.28;;;11.93;95.65
77431;BME280;66498;48.564;19.272;2023-08-01T02:08:06;97013.28;;;11.86;95.77
77431;BME280;66498;48.564;19.272;2023-08-01T02:10:32;97007.19;;;11.85;96.32
77431;BME280;66498;48.564;19.272;2023-08-01T02:12:57;97002.59;;;11.58;96.70
77431;BME280;66498;48.564;19.272;2023-08-01T02:15:23;96999.09;;;11.70;96.37
77431;BME280;66498;48.564;19.272;2023-08-01T02:17:49;97001.91;;;12.02;94.86
77431;BME280;66498;48.564;19.272;2023-08-01T02:20:15;97002.13;;;12.17;93.06
77431;BME280;66498;48.564;19.272;2023-08-01T02:22:40;96997.47;;;12.02;93.75
77431;BME280;66498;48.564;19.272;2023-08-01T02:25:06;96997.38;;;11.97;94.40
77431;BME280;66498;48.564;19.272;2023-08-01T02:27:31;96996.59;;;12.19;93.80
77431;BME280;66498;48.564;19.272;2023-08-01T02:29:57;96997.63;;;12.40;92.05
77431;BME280;66498;48.564;19.272;2023-08-01T02:32:22;96987.63;;;12.37;92.58
77431;BME280;66498;48.564;19.272;2023-08-01T02:34:48;96986.81;;;12.36;92.75
77431;BME280;66498;48.564;19.272;2023-08-01T02:37:13;96991.47;;;12.29;93.72
77431;BME280;66498;48.564;19.272;2023-08-01T02:39:39;96986.38;;;12.22;94.58
77431;BME280;66498;48.564;19.272;2023-08-01T02:42:04;96974.28;;;12.21;94.69
77431;BME280;66498;48.564;19.272;2023-08-01T02:44:30;96988.78;;;12.24;94.54
77431;BME280;66498;48.564;19.272;2023-08-01T02:46:55;96994.16;;;12.12;95.73
77431;BME280;66498;48.564;19.272;2023-08-01T02:49:21;96994.88;;;12.07;96.55
77431;BME280;66498;48.564;19.272;2023-08-01T02:51:46;96985.47;;;12.12;95.52
77431;BME280;66498;48.564;19.272;2023-08-01T02:54:12;96973.47;;;12.43;93.45
77431;BME280;66498;48.564;19.272;2023-08-01T02:56:37;96981.66;;;12.46;93.40
77431;BME280;66498;48.564;19.272;2023-08-01T02:59:09;96975.75;;;12.34;94.45
77431;BME280;66498;48.564;19.272;2023-08-01T03:01:36;96977.72;;;12.71;92.33
77431;BME280;66498;48.564;19.272;2023-08-01T03:04:03;96976.84;;;12.38;94.23
77431;BME280;66498;48.564;19.272;2023-08-01T03:06:29;96979.47;;;12.60;93.05
77431;BME280;66498;48.564;19.272;2023-08-01T03:08:55;96975.59;;;12.68;92.09
77431;BME280;66498;48.564;19.272;2023-08-01T03:11:20;96981.47;;;12.53;92.31
77431;BME280;66498;48.564;19.272;2023-08-01T03:13:46;96983.94;;;12.38;93.09
77431;BME280;66498;48.564;19.272;2023-08-01T03:16:11;96977.03;;;12.10;95.45
77431;BME280;66498;48.564;19.272;2023-08-01T03:18:37;96980.81;;;12.41;93.86
77431;BME280;66498;48.564;19.272;2023-08-01T03:21:02;96987.25;;;12.50;93.31
77431;BME280;66498;48.564;19.272;2023-08-01T03:23:29;96977.81;;;12.32;94.17
77431;BME280;66498;48.564;19.272;2023-08-01T03:25:55;96979.53;;;12.21;94.93
77431;BME280;66498;48.564;19.272;2023-08-01T03:28:20;96972.53;;;11.88;95.59
77431;BME280;66498;48.564;19.272;2023-08-01T03:30:46;96975.03;;;11.61;97.00
77431;BME280;66498;48.564;19.272;2023-08-01T03:33:15;96970.53;;;11.78;96.06
77431;BME280;66498;48.564;19.272;2023-08-01T03:35:41;96967.91;;;11.78;96.15
77431;BME280;66498;48.564;19.272;2023-08-01T03:38:06;96959.22;;;11.78;96.62
77431;BME280;66498;48.564;19.272;2023-08-01T03:40:32;96955.66;;;11.67;97.58
77431;BME280;66498;48.564;19.272;2023-08-01T03:42:57;96967.97;;;11.83;96.88
77431;BME280;66498;48.564;19.272;2023-08-01T03:45:23;96972.13;;;11.79;97.69
77431;BME280;66498;48.564;19.272;2023-08-01T03:47:49;96959.00;;;11.79;97.27
77431;BME280;66498;48.564;19.272;2023-08-01T03:50:14;96967.34;;;11.76;97.95
77431;BME280;66498;48.564;19.272;2023-08-01T03:52:40;96968.47;;;11.80;97.47
77431;BME280;66498;48.564;19.272;2023-08-01T03:55:06;96959.31;;;11.83;97.72
77431;BME280;66498;48.564;19.272;2023-08-01T03:57:31;96961.03;;;11.94;97.51
77431;BME280;66498;48.564;19.272;2023-08-01T03:59:59;96966.03;;;12.13;96.70
77431;BME280;66498;48.564;19.272;2023-08-01T04:02:27;96966.88;;;12.18;97.20
77431;BME280;66498;48.564;19.272;2023-08-01T04:04:53;96972.50;;;12.27;96.85
77431;BME280;66498;48.564;19.272;2023-08-01T04:07:18;96969.13;;;12.31;96.67
77431;BME280;66498;48.564;19.272;2023-08-01T04:09:44;96964.31;;;12.23;97.23
77431;BME280;66498;48.564;19.272;2023-08-01T04:12:09;96972.50;;;12.27;97.23
77431;BME280;66498;48.564;19.272;2023-08-01T04:14:35;96966.69;;;12.25;97.71
77431;BME280;66498;48.564;19.272;2023-08-01T04:17:00;96966.81;;;12.35;97.30
77431;BME280;66498;48.564;19.272;2023-08-01T04:19:26;96966.88;;;12.40;96.90
77431;BME280;66498;48.564;19.272;2023-08-01T04:21:51;96971.69;;;12.48;96.48
77431;BME280;66498;48.564;19.272;2023-08-01T04:24:17;96960.88;;;12.23;97.86
77431;BME280;66498;48.564;19.272;2023-08-01T04:26:42;96969.50;;;12.18;97.81
77431;BME280;66498;48.564;19.272;2023-08-01T04:29:08;96963.63;;;12.33;97.76
77431;BME280;66498;48.564;19.272;2023-08-01T04:31:36;96962.13;;;12.42;97.40
77431;BME280;66498;48.564;19.272;2023-08-01T04:34:02;96967.16;;;12.44;97.37
77431;BME280;66498;48.564;19.272;2023-08-01T04:36:29;96962.81;;;12.54;96.37
77431;BME280;66498;48.564;19.272;2023-08-01T04:38:54;96971.66;;;12.70;95.94
77431;BME280;66498;48.564;19.272;2023-08-01T04:41:21;96971.91;;;12.96;94.40
77431;BME280;66498;48.564;19.272;2023-08-01T04:43:49;96970.28;;;13.22;92.41
77431;BME280;66498;48.564;19.272;2023-08-01T04:46:14;96964.63;;;13.08;93.62
77431;BME280;66498;48.564;19.272;2023-08-01T04:48:41;96952.53;;;13.12;93.58
77431;BME280;66498;48.564;19.272;2023-08-01T04:51:18;96953.41;;;12.91;95.84
77431;BME280;66498;48.564;19.272;2023-08-01T04:53:46;96952.09;;;12.93;95.62
77431;BME280;66498;48.564;19.272;2023-08-01T04:56:15;96949.66;;;13.46;93.16
77431;BME280;66498;48.564;19.272;2023-08-01T04:58:40;96955.53;;;13.58;92.78
77431;BME280;66498;48.564;19.272;2023-08-01T05:01:07;96964.66;;;13.83;92.20
77431;BME280;66498;48.564;19.272;2023-08-01T05:03:33;96966.03;;;13.95;91.91
77431;BME280;66498;48.564;19.272;2023-08-01T05:06:00;96964.94;;;13.91;91.93
77431;BME280;66498;48.564;19.272;2023-08-01T05:08:26;96966.53;;;13.92;91.60
77431;BME280;66498;48.564;19.272;2023-08-01T05:10:51;96963.91;;;13.92;91.29
77431;BME280;66498;48.564;19.272;2023-08-01T05:13:16;96963.31;;;13.85;92.18
77431;BME280;66498;48.564;19.272;2023-08-01T05:15:46;96959.59;;;13.76;92.49
77431;BME280;66498;48.564;19.272;2023-08-01T05:18:16;96965.00;;;14.02;92.02
77431;BME280;66498;48.564;19.272;2023-08-01T05:20:42;96962.97;;;14.14;91.56
77431;BME280;66498;48.564;19.272;2023-08-01T05:23:07;96971.16;;;14.17;91.10
77431;BME280;66498;48.564;19.272;2023-08-01T05:25:33;96970.25;;;14.54;88.67
77431;BME280;66498;48.564;19.272;2023-08-01T05:27:58;96960.47;;;14.60;89.27
77431;BME280;66498;48.564;19.272;2023-08-01T05:30:25;96962.00;;;14.46;90.09
77431;BME280;66498;48.564;19.272;2023-08-01T05:32:51;96959.75;;;14.75;88.57
77431;BME280;66498;48.564;19.272;2023-08-01T05:35:19;96960.25;;;14.77;88.59
77431;BME280;66498;48.564;19.272;2023-08-01T05:37:44;96955.75;;;15.59;84.74
77431;BME280;66498;48.564;19.272;2023-08-01T05:40:10;96959.34;;;16.19;82.18
77431;BME280;66498;48.564;19.272;2023-08-01T05:42:36;96962.06;;;16.59;80.10
77431;BME280;66498;48.564;19.272;2023-08-01T05:45:01;96944.66;;;17.55;76.35
77431;BME280;66498;48.564;19.272;2023-08-01T05:47:27;96951.09;;;17.49;76.87
77431;BME280;66498;48.564;19.272;2023-08-01T05:49:53;96949.84;;;17.41;78.56
77431;BME280;66498;48.564;19.272;2023-08-01T05:52:19;96951.09;;;17.78;76.57
77431;BME280;66498;48.564;19.272;2023-08-01T05:54:44;96945.72;;;18.50;73.34
77431;BME280;66498;48.564;19.272;2023-08-01T05:57:10;96945.47;;;18.09;74.54
77431;BME280;66498;48.564;19.272;2023-08-01T05:59:36;96941.59;;;17.14;76.64
77431;BME280;66498;48.564;19.272;2023-08-01T06:02:02;96950.47;;;17.86;75.36
77431;BME280;66498;48.564;19.272;2023-08-01T06:04:28;96950.72;;;17.90;74.95
77431;BME280;66498;48.564;19.272;2023-08-01T06:06:53;96945.09;;;17.67;76.53
77431;BME280;66498;48.564;19.272;2023-08-01T06:09:19;96945.34;;;17.66;75.40
77431;BME280;66498;48.564;19.272;2023-08-01T06:11:45;96951.75;;;17.36;76.12
77431;BME280;66498;48.564;19.272;2023-08-01T06:14:11;96957.25;;;17.10;78.11
77431;BME280;66498;48.564;19.272;2023-08-01T06:16:37;96950.84;;;17.16;76.88
77431;BME280;66498;48.564;19.272;2023-08-01T06:19:02;96955.16;;;17.41;77.21
77431;BME280;66498;48.564;19.272;2023-08-01T06:21:28;96959.13;;;17.39;78.05
77431;BME280;66498;48.564;19.272;2023-08-01T06:23:54;96947.66;;;17.19;79.65
77431;BME280;66498;48.564;19.272;2023-08-01T06:26:19;96949.22;;;16.81;81.47
77431;BME280;66498;48.564;19.272;2023-08-01T06:28:45;96950.31;;;16.80;80.30
77431;BME280;66498;48.564;19.272;2023-08-01T06:31:10;96957.78;;;17.12;80.00
77431;BME280;66498;48.564;19.272;2023-08-01T06:33:37;96953.72;;;17.54;77.95
77431;BME280;66498;48.564;19.272;2023-08-01T06:36:03;96935.81;;;17.07;79.82
77431;BME280;66498;48.564;19.272;2023-08-01T06:38:29;96950.63;;;17.42;77.92
77431;BME280;66498;48.564;19.272;2023-08-01T06:40:54;96946.50;;;16.96;78.89
77431;BME280;66498;48.564;19.272;2023-08-01T06:43:20;96943.06;;;16.96;79.13
77431;BME280;66498;48.564;19.272;2023-08-01T06:45:45;96934.16;;;17.16;78.26
77431;BME280;66498;48.564;19.272;2023-08-01T06:48:11;96940.72;;;16.84;79.21
77431;BME280;66498;48.564;19.272;2023-08-01T06:50:37;96929.75;;;17.59;76.01
77431;BME280;66498;48.564;19.272;2023-08-01T06:53:03;96929.13;;;17.43;77.65
77431;BME280;66498;48.564;19.272;2023-08-01T06:55:28;96927.97;;;17.84;75.06
77431;BME280;66498;48.564;19.272;2023-08-01T06:57:54;96924.88;;;17.42;77.29
77431;BME280;66498;48.564;19.272;2023-08-01T07:00:19;96931.06;;;17.62;76.58
77431;BME280;66498;48.564;19.272;2023-08-01T07:02:45;96931.75;;;17.78;74.78
77431;BME280;66498;48.564;19.272;2023-08-01T07:05:11;96929.88;;;18.02;74.18
77431;BME280;66498;48.564;19.272;2023-08-01T07:07:42;96913.94;;;17.49;77.27
77431;BME280;66498;48.564;19.272;2023-08-01T07:10:08;96913.59;;;17.85;76.57
77431;BME280;66498;48.564;19.272;2023-08-01T07:12:33;96907.97;;;18.10;76.10
77431;BME280;66498;48.564;19.272;2023-08-01T07:15:01;96906.72;;;18.08;76.01
77431;BME280;66498;48.564;19.272;2023-08-01T07:17:27;96900.38;;;17.80;77.33
77431;BME280;66498;48.564;19.272;2023-08-01T07:19:52;96902.78;;;18.00;76.54
77431;BME280;66498;48.564;19.272;2023-08-01T07:22:20;96906.59;;;17.70;77.71
77431;BME280;66498;48.564;19.272;2023-08-01T07:24:45;96904.97;;;17.69;77.34
77431;BME280;66498;48.564;19.272;2023-08-01T07:27:11;96906.69;;;17.60;76.37
77431;BME280;66498;48.564;19.272;2023-08-01T07:29:37;96909.63;;;18.06;75.43
77431;BME280;66498;48.564;19.272;2023-08-01T07:32:04;96905.38;;;18.48;74.01
77431;BME280;66498;48.564;19.272;2023-08-01T07:34:30;96907.94;;;18.15;75.19
77431;BME280;66498;48.564;19.272;2023-08-01T07:36:55;96898.75;;;18.08;75.88
77431;BME280;66498;48.564;19.272;2023-08-01T07:39:21;96895.25;;;18.31;75.69
77431;BME280;66498;48.564;19.272;2023-08-01T07:41:47;96878.09;;;18.61;74.62
77431;BME280;66498;48.564;19.272;2023-08-01T07:44:12;96883.69;;;19.11;72.28
77431;BME280;66498;48.564;19.272;2023-08-01T07:46:38;96881.34;;;19.10;71.60
77431;BME280;66498;48.564;19.272;2023-08-01T07:49:04;96875.41;;;18.99;72.55
77431;BME280;66498;48.564;19.272;2023-08-01T07:51:30;96872.38;;;19.06;72.72
77431;BME280;66498;48.564;19.272;2023-08-01T07:53:56;96869.66;;;19.52;70.13
77431;BME280;66498;48.564;19.272;2023-08-01T07:56:22;96866.94;;;19.85;67.80
77431;BME280;66498;48.564;19.272;2023-08-01T07:58:47;96867.72;;;19.85;67.47
77431;BME280;66498;48.564;19.272;2023-08-01T08:01:13;96864.06;;;19.54;68.15
77431;BME280;66498;48.564;19.272;2023-08-01T08:03:39;96857.97;;;19.81;67.71
77431;BME280;66498;48.564;19.272;2023-08-01T08:06:04;96849.19;;;19.94;67.53
77431;BME280;66498;48.564;19.272;2023-08-01T08:08:31;96850.97;;;20.35;67.98
77431;BME280;66498;48.564;19.272;2023-08-01T08:10:59;96847.25;;;20.81;63.79
77431;BME280;66498;48.564;19.272;2023-08-01T08:13:25;96846.38;;;21.17;63.12
77431;BME280;66498;48.564;19.272;2023-08-01T08:15:50;96840.13;;;21.21;64.12
77431;BME280;66498;48.564;19.272;2023-08-01T08:18:16;96838.03;;;21.10;65.19
77431;BME280;66498;48.564;19.272;2023-08-01T08:20:44;96831.81;;;21.23;62.25
77431;BME280;66498;48.564;19.272;2023-08-01T08:23:11;96826.72;;;21.92;61.36
77431;BME280;66498;48.564;19.272;2023-08-01T08:25:41;96820.50;;;22.49;58.32
77431;BME280;66498;48.564;19.272;2023-08-01T08:28:07;96818.94;;;22.39;60.57
77431;BME280;66498;48.564;19.272;2023-08-01T08:30:35;96816.53;;;22.12;60.58
77431;BME280;66498;48.564;19.272;2023-08-01T08:33:00;96825.81;;;21.48;62.99
77431;BME280;66498;48.564;19.272;2023-08-01T08:35:30;96819.44;;;21.67;63.10
77431;BME280;66498;48.564;19.272;2023-08-01T08:37:58;96819.81;;;21.91;62.56
77431;BME280;66498;48.564;19.272;2023-08-01T08:40:24;96812.25;;;21.93;62.80
77431;BME280;66498;48.564;19.272;2023-08-01T08:42:49;96812.09;;;21.90;62.17
77431;BME280;66498;48.564;19.272;2023-08-01T08:45:19;96808.97;;;22.14;59.91
77431;BME280;66498;48.564;19.272;2023-08-01T08:47:50;96804.28;;;22.54;60.91
77431;BME280;66498;48.564;19.272;2023-08-01T08:50:17;96806.91;;;22.89;59.42
77431;BME280;66498;48.564;19.272;2023-08-01T08:52:45;96798.88;;;22.89;58.65
77431;BME280;66498;48.564;19.272;2023-08-01T08:55:11;96793.81;;;23.13;57.44
77431;BME280;66498;48.564;19.272;2023-08-01T08:57:37;96791.66;;;22.98;58.87
77431;BME280;66498;48.564;19.272;2023-08-01T09:00:05;96782.75;;;22.25;61.39
77431;BME280;66498;48.564;19.272;2023-08-01T09:02:32;96778.00;;;21.95;63.96
77431;BME280;66498;48.564;19.272;2023-08-01T09:04:58;96773.72;;;21.77;63.40
77431;BME280;66498;48.564;19.272;2023-08-01T09:07:29;96775.75;;;21.63;65.00
77431;BME280;66498;48.564;19.272;2023-08-01T09:09:55;96776.53;;;21.63;63.63
77431;BME280;66498;48.564;19.272;2023-08-01T09:12:21;96764.50;;;22.09;63.67
77431;BME280;66498;48.564;19.272;2023-08-01T09:14:51;96775.91;;;21.58;66.55
77431;BME280;66498;48.564;19.272;2023-08-01T09:17:18;96781.13;;;21.32;67.17
77431;BME280;66498;48.564;19.272;2023-08-01T09:19:44;96771.22;;;21.23;66.39
77431;BME280;66498;48.564;19.272;2023-08-01T09:22:13;96782.16;;;21.44;64.46
77431;BME280;66498;48.564;19.272;2023-08-01T09:24:50;96764.09;;;21.50;64.74
77431;BME280;66498;48.564;19.272;2023-08-01T09:27:16;96767.84;;;21.40;66.85
77431;BME280;66498;48.564;19.272;2023-08-01T09:29:41;96759.78;;;22.06;64.00
77431;BME280;66498;48.564;19.272;2023-08-01T09:32:14;96750.63;;;23.24;59.67
77431;BME280;66498;48.564;19.272;2023-08-01T09:34:41;96748.69;;;23.92;58.95
77431;BME280;66498;48.564;19.272;2023-08-01T09:37:10;96740.91;;;24.87;56.99
77431;BME280;66498;48.564;19.272;2023-08-01T09:39:41;96740.03;;;24.62;56.82
77431;BME280;66498;48.564;19.272;2023-08-01T09:42:07;96739.34;;;24.98;57.22
77431;BME280;66498;48.564;19.272;2023-08-01T09:44:34;96730.75;;;25.29;57.19
77431;BME280;66498;48.564;19.272;2023-08-01T09:47:05;96732.06;;;25.60;55.29
77431;BME280;66498;48.564;19.272;2023-08-01T09:49:32;96720.03;;;25.41;58.13
77431;BME280;66498;48.564;19.272;2023-08-01T09:51:59;96719.69;;;25.31;56.30
77431;BME280;66498;48.564;19.272;2023-08-01T09:54:25;96709.34;;;25.08;58.20
77431;BME280;66498;48.564;19.272;2023-08-01T09:56:53;96708.00;;;24.90;58.15
77431;BME280;66498;48.564;19.272;2023-08-01T09:59:24;96700.75;;;24.45;59.16
77431;BME280;66498;48.564;19.272;2023-08-01T10:01:52;96698.06;;;24.45;59.67
77431;BME280;66498;48.564;19.272;2023-08-01T10:04:23;96707.09;;;24.86;57.79
77431;BME280;66498;48.564;19.272;2023-08-01T10:06:54;96693.66;;;24.61;56.99
77431;BME280;66498;48.564;19.272;2023-08-01T10:09:25;96701.81;;;24.65;58.25
77431;BME280;66498;48.564;19.272;2023-08-01T10:11:56;96696.97;;;25.16;52.08
77431;BME280;66498;48.564;19.272;2023-08-01T10:14:22;96694.09;;;24.63;51.41
77431;BME280;66498;48.564;19.272;2023-08-01T10:16:49;96685.69;;;24.52;50.64
77431;BME280;66498;48.564;19.272;2023-08-01T10:19:17;96678.34;;;24.74;52.87
77431;BME280;66498;48.564;19.272;2023-08-01T10:21:43;96686.06;;;24.63;56.05
77431;BME280;66498;48.564;19.272;2023-08-01T10:24:11;96678.84;;;25.13;50.82
77431;BME280;66498;48.564;19.272;2023-08-01T10:26:37;96678.00;;;24.75;50.73
77431;BME280;66498;48.564;19.272;2023-08-01T10:29:03;96671.91;;;25.12;51.60
77431;BME280;66498;48.564;19.272;2023-08-01T10:31:29;96670.22;;;25.07;50.63
77431;BME280;66498;48.564;19.272;2023-08-01T10:34:07;96665.13;;;24.69;51.50
77431;BME280;66498;48.564;19.272;2023-08-01T10:36:33;96670.66;;;24.85;52.24
77431;BME280;66498;48.564;19.272;2023-08-01T10:39:01;96664.50;;;24.84;53.02
77431;BME280;66498;48.564;19.272;2023-08-01T10:41:29;96664.78;;;25.56;51.00
77431;BME280;66498;48.564;19.272;2023-08-01T10:44:08;96662.25;;;25.88;50.00
77431;BME280;66498;48.564;19.272;2023-08-01T10:46:58;96664.13;;;25.47;52.29
77431;BME280;66498;48.564;19.272;2023-08-01T10:49:42;96661.41;;;25.71;51.38
77431;BME280;66498;48.564;19.272;2023-08-01T10:52:15;96650.88;;;26.07;52.22
77431;BME280;66498;48.564;19.272;2023-08-01T10:54:43;96637.56;;;25.17;56.43
77431;BME280;66498;48.564;19.272;2023-08-01T10:57:17;96634.63;;;25.35;55.14
77431;BME280;66498;48.564;19.272;2023-08-01T10:59:44;96642.13;;;25.05;54.83
77431;BME280;66498;48.564;19.272;2023-08-01T11:02:11;96633.63;;;25.15;54.51
77431;BME280;66498;48.564;19.272;2023-08-01T11:04:37;96634.75;;;25.26;55.98
77431;BME280;66498;48.564;19.272;2023-08-01T11:07:04;96622.97;;;25.06;56.14
77431;BME280;66498;48.564;19.272;2023-08-01T11:09:30;96627.03;;;25.24;55.36
77431;BME280;66498;48.564;19.272;2023-08-01T11:11:58;96620.09;;;25.11;55.78
77431;BME280;66498;48.564;19.272;2023-08-01T11:14:27;96613.41;;;25.17;55.15
77431;BME280;66498;48.564;19.272;2023-08-01T11:16:55;96613.94;;;24.74;53.11
77431;BME280;66498;48.564;19.272;2023-08-01T11:19:30;96608.44;;;25.32;53.52
77431;BME280;66498;48.564;19.272;2023-08-01T11:21:57;96607.19;;;25.41;50.43
77431;BME280;66498;48.564;19.272;2023-08-01T11:24:25;96599.94;;;25.05;50.04
77431;BME280;66498;48.564;19.272;2023-08-01T11:26:52;96621.03;;;25.43;49.02
77431;BME280;66498;48.564;19.272;2023-08-01T11:29:20;96598.09;;;25.74;49.53
77431;BME280;66498;48.564;19.272;2023-08-01T11:31:57;96612.47;;;25.66;51.01
77431;BME280;66498;48.564;19.272;2023-08-01T11:34:25;96605.09;;;25.63;50.17
77431;BME280;66498;48.564;19.272;2023-08-01T11:36:52;96601.72;;;25.38;50.19
77431;BME280;66498;48.564;19.272;2023-08-01T11:39:23;96602.81;;;25.37;50.63
77431;BME280;66498;48.564;19.272;2023-08-01T11:41:57;96605.75;;;26.00;49.88
77431;BME280;66498;48.564;19.272;2023-08-01T11:44:26;96596.00;;;25.67;50.42
77431;BME280;66498;48.564;19.272;2023-08-01T11:46:51;96593.59;;;25.90;49.20
77431;BME280;66498;48.564;19.272;2023-08-01T11:49:22;96596.53;;;25.73;49.04
77431;BME280;66498;48.564;19.272;2023-08-01T11:51:49;96593.19;;;25.36;49.63
77431;BME280;66498;48.564;19.272;2023-08-01T11:57:04;96590.22;;;25.00;51.48
77431;BME280;66498;48.564;19.272;2023-08-01T11:59:31;96584.69;;;25.34;51.98
77431;BME280;66498;48.564;19.272;2023-08-01T12:01:57;96587.97;;;24.66;53.27
77431;BME280;66498;48.564;19.272;2023-08-01T12:04:27;96583.19;;;24.71;51.89
77431;BME280;66498;48.564;19.272;2023-08-01T12:06:53;96582.63;;;24.08;53.66
77431;BME280;66498;48.564;19.272;2023-08-01T12:09:20;96579.28;;;24.11;54.01
77431;BME280;66498;48.564;19.272;2023-08-01T12:11:58;96578.91;;;24.34;54.13
77431;BME280;66498;48.564;19.272;2023-08-01T12:14:26;96571.50;;;24.30;53.68
77431;BME280;66498;48.564;19.272;2023-08-01T12:22:06;96562.03;;;24.33;53.04
77431;BME280;66498;48.564;19.272;2023-08-01T12:24:33;96562.66;;;24.18;54.48
77431;BME280;66498;48.564;19.272;2023-08-01T12:27:05;96551.38;;;24.24;53.03
77431;BME280;66498;48.564;19.272;2023-08-01T12:29:32;96559.91;;;24.26;54.00
77431;BME280;66498;48.564;19.272;2023-08-01T12:31:58;96561.06;;;24.04;53.60
77431;BME280;66498;48.564;19.272;2023-08-01T12:34:25;96571.91;;;24.08;54.21
77431;BME280;66498;48.564;19.272;2023-08-01T12:37:13;96575.50;;;22.95;60.85
77431;BME280;66498;48.564;19.272;2023-08-01T12:39:39;96583.44;;;22.44;63.74
77431;BME280;66498;48.564;19.272;2023-08-01T12:42:14;96580.91;;;21.84;67.47
77431;BME280;66498;48.564;19.272;2023-08-01T12:45:00;96581.41;;;21.60;69.14
77431;BME280;66498;48.564;19.272;2023-08-01T12:47:30;96580.63;;;21.59;70.32
77431;BME280;66498;48.564;19.272;2023-08-01T12:49:56;96587.22;;;21.53;71.06
77431;BME280;66498;48.564;19.272;2023-08-01T12:52:27;96596.81;;;21.45;71.28
77431;BME280;66498;48.564;19.272;2023-08-01T12:54:52;96595.53;;;21.25;71.87
77431;BME280;66498;48.564;19.272;2023-08-01T12:57:18;96593.75;;;20.95;73.22